Time;durP1;ratioP1;P1;durP2;ratioP2;P2;SDS_P1;SDS_P2;PMS_P1;PMS_P2;Temp;Humidity;BMP_temperature;BMP_pressure;BME280_temperature;BME280_humidity;BME280_pressure;Samples;Min_cycle;Max_cycle;Signal;HPM_P1;HPM_P2
2022/03/09 00:01:15;;;;;;;3.03;2.30;;;1.20;99.90;;;;;;5024631;28;20121;-71
2022/03/09 00:03:41;;;;;;;3.63;2.75;;;1.20;99.90;;;;;;5024060;28;20049;-71
2022/03/09 00:06:07;;;;;;;2.88;2.20;;;1.10;99.90;;;;;;5024327;28;20056;-71
2022/03/09 00:08:32;;;;;;;3.72;2.63;;;1.10;99.90;;;;;;5027293;28;20088;-71
2022/03/09 00:10:58;;;;;;;2.85;2.33;;;1.00;99.90;;;;;;5028702;28;20049;-72
2022/03/09 00:13:24;;;;;;;3.08;2.42;;;1.00;99.90;;;;;;5026575;28;20045;-71
2022/03/09 00:15:50;;;;;;;2.92;2.60;;;1.00;99.90;;;;;;5028352;28;20447;-71
2022/03/09 00:18:15;;;;;;;2.88;2.55;;;1.00;99.90;;;;;;5007849;28;20052;-71
2022/03/09 00:20:41;;;;;;;3.15;2.25;;;0.90;99.90;;;;;;5011609;28;20048;-71
2022/03/09 00:23:07;;;;;;;2.63;2.42;;;0.90;99.90;;;;;;5006764;28;20042;-71
2022/03/09 00:25:33;;;;;;;7.82;2.53;;;0.90;99.90;;;;;;4997192;28;20128;-71
2022/03/09 00:27:58;;;;;;;5.18;2.50;;;0.90;99.90;;;;;;5002733;28;20050;-71
2022/03/09 00:30:24;;;;;;;4.30;2.70;;;0.90;99.90;;;;;;4989298;28;20041;-71
2022/03/09 00:32:50;;;;;;;4.85;2.60;;;0.90;99.90;;;;;;5003927;28;20052;-71
2022/03/09 00:35:16;;;;;;;2.75;2.55;;;0.80;99.90;;;;;;5000000;28;20033;-71
2022/03/09 00:37:42;;;;;;;3.80;2.80;;;0.80;99.90;;;;;;4994736;28;20486;-71
2022/03/09 00:40:08;;;;;;;5.80;2.90;;;0.70;99.90;;;;;;4995963;28;20046;-71
2022/03/09 00:42:39;;;;;;;6.22;3.30;;;0.60;99.90;;;;;;4976198;28;20045;-71
2022/03/09 00:45:06;;;;;;;5.20;2.35;;;0.60;99.90;;;;;;4995975;28;20050;-71
2022/03/09 00:47:32;;;;;;;6.90;3.00;;;0.60;99.90;;;;;;5013549;28;20188;-71
2022/03/09 00:49:58;;;;;;;5.53;2.60;;;0.60;99.90;;;;;;4992654;28;20535;-71
2022/03/09 00:52:24;;;;;;;3.28;2.35;;;0.70;99.90;;;;;;4988033;28;20653;-71
2022/03/09 00:54:50;;;;;;;3.58;2.55;;;0.70;99.90;;;;;;4992550;28;20499;-71
2022/03/09 00:57:16;;;;;;;4.47;2.70;;;0.70;99.90;;;;;;4992076;28;20488;-71
2022/03/09 00:59:42;;;;;;;6.22;2.58;;;0.50;99.90;;;;;;5001423;28;20630;-71
2022/03/09 01:02:08;;;;;;;4.30;2.70;;;0.30;99.90;;;;;;4984761;28;20034;-71
2022/03/09 01:04:35;;;;;;;4.00;2.60;;;0.20;99.90;;;;;;5004732;28;20041;-71
2022/03/09 01:07:02;;;;;;;4.55;2.78;;;0.30;99.90;;;;;;4994281;28;20049;-71
2022/03/09 01:09:28;;;;;;;6.25;2.75;;;0.30;99.90;;;;;;4981803;28;20056;-71
2022/03/09 01:11:54;;;;;;;4.90;2.70;;;0.30;99.90;;;;;;4993951;28;20534;-71
2022/03/09 01:14:20;;;;;;;6.28;3.38;;;0.40;99.90;;;;;;5002899;28;20068;-71
2022/03/09 01:16:46;;;;;;;7.95;2.47;;;0.40;99.90;;;;;;5010511;28;20574;-71
2022/03/09 01:19:11;;;;;;;3.10;2.80;;;0.40;99.90;;;;;;5006373;28;20190;-71
2022/03/09 01:21:37;;;;;;;4.65;2.95;;;0.40;99.90;;;;;;5007567;28;20116;-71
2022/03/09 01:24:03;;;;;;;3.30;3.00;;;0.40;99.90;;;;;;5036756;28;20053;-71
2022/03/09 01:26:29;;;;;;;4.07;2.70;;;0.40;99.90;;;;;;5027630;28;20172;-71
2022/03/09 01:28:55;;;;;;;5.32;2.63;;;0.40;99.90;;;;;;5005704;28;20041;-71
2022/03/09 01:31:21;;;;;;;4.00;2.95;;;0.30;99.90;;;;;;4998008;28;20099;-71
2022/03/09 01:33:46;;;;;;;2.83;2.50;;;0.20;99.90;;;;;;4996914;28;20049;-71
2022/03/09 01:36:12;;;;;;;2.90;2.42;;;0.10;99.90;;;;;;4995476;28;20067;-71
2022/03/09 01:38:38;;;;;;;2.70;2.50;;;0.00;99.90;;;;;;5018232;28;20053;-71
2022/03/09 01:41:03;;;;;;;4.80;2.90;;;-0.20;99.90;;;;;;5006397;28;20491;-71
2022/03/09 01:43:29;;;;;;;14.00;2.88;;;-0.30;99.90;;;;;;5019122;28;20142;-71
2022/03/09 01:45:55;;;;;;;5.00;3.00;;;-0.40;99.90;;;;;;5033798;28;20488;-71
2022/03/09 01:48:21;;;;;;;5.65;3.53;;;-0.50;99.90;;;;;;5020140;28;20499;-71
2022/03/09 01:50:47;;;;;;;10.18;3.60;;;-0.50;99.90;;;;;;5024745;28;20138;-71
2022/03/09 01:53:12;;;;;;;4.47;2.97;;;-0.50;99.90;;;;;;5013694;28;20434;-71
2022/03/09 01:55:38;;;;;;;3.13;2.83;;;-0.40;99.90;;;;;;4999881;28;20049;-71
2022/03/09 01:58:04;;;;;;;5.63;2.83;;;-0.30;99.90;;;;;;5022392;28;20491;-71
2022/03/09 02:00:30;;;;;;;3.63;3.20;;;-0.20;99.90;;;;;;5024813;28;20120;-71
2022/03/09 02:02:56;;;;;;;4.00;2.85;;;-0.10;99.90;;;;;;5014163;28;20144;-71
2022/03/09 02:05:22;;;;;;;3.97;3.35;;;-0.10;99.90;;;;;;5014365;28;20049;-71
2022/03/09 02:10:32;;;;;;;4.03;2.40;;;-0.20;99.90;;;;;;5021916;28;20053;-71
2022/03/09 02:12:58;;;;;;;3.65;2.70;;;-0.30;99.90;;;;;;5010089;28;20385;-71
2022/03/09 02:15:24;;;;;;;3.63;3.33;;;-0.40;99.90;;;;;;5019255;28;20059;-71
2022/03/09 02:17:50;;;;;;;3.33;3.03;;;-0.60;99.90;;;;;;5023671;28;20049;-71
2022/03/09 02:20:16;;;;;;;8.00;3.70;;;-0.70;99.90;;;;;;5011226;28;20046;-71
2022/03/09 02:22:43;;;;;;;2.58;2.35;;;-0.70;99.90;;;;;;5023608;28;20204;-71
2022/03/09 02:25:12;;;;;;;5.82;2.42;;;-0.90;99.90;;;;;;5022323;28;20045;-71
2022/03/09 02:27:39;;;;;;;2.65;2.45;;;-1.00;99.90;;;;;;4992316;28;20049;-71
2022/03/09 02:30:06;;;;;;;5.60;2.97;;;-1.10;99.90;;;;;;5015631;28;20088;-71
2022/03/09 02:32:38;;;;;;;6.47;2.88;;;-1.20;99.90;;;;;;5016908;28;20476;-71
2022/03/09 02:35:04;;;;;;;5.03;2.75;;;-1.20;99.90;;;;;;5026612;28;20071;-71
2022/03/09 02:37:30;;;;;;;3.85;2.85;;;-1.00;99.90;;;;;;5002909;28;20555;-71
2022/03/09 02:39:55;;;;;;;7.13;3.17;;;-0.90;99.90;;;;;;5014390;28;20060;-71
2022/03/09 02:42:21;;;;;;;5.75;3.22;;;-0.80;99.90;;;;;;5020131;28;20136;-71
2022/03/09 02:44:47;;;;;;;3.20;2.90;;;-0.70;99.90;;;;;;5022271;28;20049;-71
2022/03/09 02:47:13;;;;;;;9.30;3.28;;;-0.70;99.90;;;;;;5026793;28;20053;-71
2022/03/09 02:49:38;;;;;;;4.80;3.33;;;-0.80;99.90;;;;;;5009922;28;20061;-71
2022/03/09 02:52:05;;;;;;;6.57;3.08;;;-0.80;99.90;;;;;;5016186;28;20049;-71
2022/03/09 02:54:30;;;;;;;11.45;3.42;;;-0.70;99.90;;;;;;5019508;28;20080;-71
2022/03/09 02:56:56;;;;;;;5.10;3.03;;;-0.70;99.90;;;;;;5026400;28;20072;-71
2022/03/09 02:59:22;;;;;;;3.20;3.00;;;-0.60;99.90;;;;;;5000679;28;20141;-71
2022/03/09 03:01:47;;;;;;;3.53;2.97;;;-0.60;99.90;;;;;;5004160;28;20045;-71
2022/03/09 03:04:13;;;;;;;6.70;3.53;;;-0.50;99.90;;;;;;5016700;28;20059;-71
2022/03/09 03:06:39;;;;;;;5.57;3.33;;;-0.40;99.90;;;;;;5025848;28;20104;-71
2022/03/09 03:09:05;;;;;;;4.57;3.22;;;-0.40;99.90;;;;;;5014729;28;20041;-71
2022/03/09 03:11:30;;;;;;;6.55;3.35;;;-0.30;99.90;;;;;;5022139;28;20038;-71
2022/03/09 03:13:56;;;;;;;5.80;3.22;;;-0.30;99.90;;;;;;5008379;28;20096;-71
2022/03/09 03:16:22;;;;;;;4.20;3.67;;;-0.30;99.90;;;;;;4998181;28;20064;-71
2022/03/09 03:18:47;;;;;;;3.33;2.90;;;-0.20;99.90;;;;;;4989908;28;20059;-71
2022/03/09 03:21:13;;;;;;;8.35;3.30;;;-0.20;99.90;;;;;;5023875;28;20041;-71
2022/03/09 03:23:39;;;;;;;9.93;3.40;;;-0.10;99.90;;;;;;4999436;28;20053;-71
2022/03/09 03:26:05;;;;;;;5.30;3.00;;;-0.10;99.90;;;;;;5009860;28;20103;-71
2022/03/09 03:28:32;;;;;;;12.93;3.30;;;-0.10;99.90;;;;;;5020927;28;20045;-71
2022/03/09 03:30:58;;;;;;;5.45;3.50;;;-0.10;99.90;;;;;;4997747;28;20041;-71
2022/03/09 03:33:23;;;;;;;9.77;3.50;;;-0.10;99.90;;;;;;5019213;28;20041;-71
2022/03/09 03:35:50;;;;;;;6.35;3.88;;;-0.10;99.90;;;;;;5009603;28;20470;-71
2022/03/09 03:38:16;;;;;;;6.57;3.50;;;0.00;99.90;;;;;;5000810;28;20045;-71
2022/03/09 03:40:42;;;;;;;6.15;3.90;;;-0.10;99.90;;;;;;5021254;28;20076;-71
2022/03/09 03:43:08;;;;;;;4.43;3.00;;;-0.10;99.90;;;;;;5027016;28;20056;-71
2022/03/09 03:45:34;;;;;;;5.43;3.88;;;-0.10;99.90;;;;;;5025236;28;20045;-71
2022/03/09 03:48:00;;;;;;;5.45;3.80;;;-0.20;99.90;;;;;;5019084;28;20041;-71
2022/03/09 03:50:26;;;;;;;9.63;3.33;;;-0.20;99.90;;;;;;5025117;28;20049;-71
2022/03/09 03:52:52;;;;;;;5.28;3.47;;;-0.30;99.90;;;;;;5031140;28;20049;-71
2022/03/09 03:55:17;;;;;;;5.55;3.80;;;-0.30;99.90;;;;;;5022788;28;20131;-71
2022/03/09 03:57:43;;;;;;;6.55;3.35;;;-0.30;99.90;;;;;;5013650;28;20041;-71
2022/03/09 04:00:15;;;;;;;7.85;4.20;;;-0.40;99.90;;;;;;5008332;28;20163;-71
2022/03/09 04:02:41;;;;;;;5.22;4.18;;;-0.40;99.90;;;;;;5018543;28;20124;-71
2022/03/09 04:05:07;;;;;;;5.50;3.50;;;-0.40;99.90;;;;;;5007215;28;20509;-71
2022/03/09 04:07:33;;;;;;;5.78;3.80;;;-0.40;99.90;;;;;;5008048;28;20191;-71
2022/03/09 04:09:59;;;;;;;5.38;3.97;;;-0.40;99.90;;;;;;4997804;28;20091;-71
2022/03/09 04:12:25;;;;;;;4.53;3.33;;;-0.40;99.90;;;;;;5016827;28;20048;-71
2022/03/09 04:14:52;;;;;;;4.10;3.78;;;-0.50;99.90;;;;;;5022001;28;20041;-71
2022/03/09 04:17:18;;;;;;;6.90;3.65;;;-0.50;99.90;;;;;;5008973;28;20118;-71
2022/03/09 04:19:44;;;;;;;16.17;4.15;;;-0.60;99.90;;;;;;5024848;28;20053;-71
2022/03/09 04:22:09;;;;;;;3.83;3.40;;;-0.70;99.90;;;;;;5010876;28;20053;-71
2022/03/09 04:24:35;;;;;;;8.05;3.30;;;-0.80;99.90;;;;;;5019632;28;20202;-70
2022/03/09 04:27:01;;;;;;;5.78;3.00;;;-0.80;99.90;;;;;;5011059;28;20448;-71
2022/03/09 04:29:26;;;;;;;4.40;3.50;;;-0.90;99.90;;;;;;5007472;28;20046;-71
2022/03/09 04:31:52;;;;;;;8.13;3.83;;;-1.00;99.90;;;;;;5023148;28;20092;-71
2022/03/09 04:34:18;;;;;;;5.35;3.72;;;-1.10;99.90;;;;;;5014391;28;20484;-71
2022/03/09 04:36:44;;;;;;;4.30;3.30;;;-1.10;99.90;;;;;;5013650;28;20118;-71
2022/03/09 04:39:11;;;;;;;4.97;3.58;;;-1.20;99.90;;;;;;5018021;28;20626;-71
2022/03/09 04:41:37;;;;;;;5.28;3.95;;;-1.20;99.90;;;;;;5005865;28;20143;-71
2022/03/09 04:44:03;;;;;;;4.40;3.50;;;-1.20;99.90;;;;;;5011454;28;20053;-71
2022/03/09 04:46:29;;;;;;;6.10;3.65;;;-1.20;99.90;;;;;;5012553;28;20885;-71
2022/03/09 04:48:57;;;;;;;4.90;3.72;;;-1.20;99.90;;;;;;5025319;28;20082;-71
2022/03/09 04:51:23;;;;;;;4.47;3.58;;;-1.30;99.90;;;;;;5006352;28;20100;-71
2022/03/09 04:53:50;;;;;;;26.33;4.22;;;-1.30;99.90;;;;;;5012336;28;20045;-71
2022/03/09 04:56:16;;;;;;;5.55;4.15;;;-1.30;99.90;;;;;;5017376;28;20041;-71
2022/03/09 04:58:41;;;;;;;6.50;4.32;;;-1.30;99.90;;;;;;5013877;28;20179;-71
2022/03/09 05:01:07;;;;;;;4.95;4.10;;;-1.20;99.90;;;;;;5007224;28;20049;-71
2022/03/09 05:03:34;;;;;;;8.60;4.20;;;-1.00;99.90;;;;;;5010225;28;20033;-71
2022/03/09 05:06:01;;;;;;;7.03;4.13;;;-0.90;99.90;;;;;;5024760;28;20141;-71
2022/03/09 05:08:27;;;;;;;5.03;3.60;;;-0.90;99.90;;;;;;4998445;28;20052;-71
2022/03/09 05:10:53;;;;;;;5.40;4.07;;;-0.80;99.90;;;;;;5003718;28;20049;-71
2022/03/09 05:13:20;;;;;;;6.85;4.40;;;-0.80;99.90;;;;;;5014622;28;20042;-70
2022/03/09 05:15:47;;;;;;;6.07;4.13;;;-0.70;99.90;;;;;;5007659;28;20107;-71
2022/03/09 05:18:12;;;;;;;7.80;4.55;;;-0.70;99.90;;;;;;5018241;28;20422;-71
2022/03/09 05:20:38;;;;;;;5.70;4.10;;;-0.70;99.90;;;;;;4990860;28;20496;-71
2022/03/09 05:23:04;;;;;;;5.70;4.35;;;-0.70;99.90;;;;;;5015322;28;20140;-71
2022/03/09 05:25:30;;;;;;;6.03;4.03;;;-0.70;99.90;;;;;;5023414;28;20422;-71
2022/03/09 05:27:56;;;;;;;6.45;4.68;;;-0.80;99.90;;;;;;5024351;28;20029;-71
2022/03/09 05:30:22;;;;;;;5.43;4.10;;;-0.80;99.90;;;;;;5023225;28;20237;-71
2022/03/09 05:32:47;;;;;;;5.50;3.80;;;-0.90;99.90;;;;;;5023935;28;20041;-71
2022/03/09 05:35:13;;;;;;;7.00;3.97;;;-1.00;99.90;;;;;;5023967;28;20041;-71
2022/03/09 05:37:41;;;;;;;6.18;4.32;;;-1.10;99.90;;;;;;5024283;28;20048;-71
2022/03/09 05:40:09;;;;;;;11.43;5.13;;;-1.20;99.90;;;;;;5007499;28;20041;-71
2022/03/09 05:42:35;;;;;;;6.43;4.60;;;-1.20;99.90;;;;;;5023336;28;20088;-71
2022/03/09 05:45:02;;;;;;;6.13;4.20;;;-1.30;99.90;;;;;;5024083;28;20029;-71
2022/03/09 05:47:28;;;;;;;10.27;3.50;;;-1.30;99.90;;;;;;5006907;28;20037;-71
2022/03/09 05:49:54;;;;;;;11.30;4.93;;;-1.30;99.90;;;;;;5024241;28;20045;-71
2022/03/09 05:52:19;;;;;;;7.82;4.25;;;-1.40;99.90;;;;;;5024152;28;20049;-71
2022/03/09 05:54:45;;;;;;;6.57;4.03;;;-1.50;99.90;;;;;;5023725;28;20045;-71
2022/03/09 05:57:19;;;;;;;8.23;4.32;;;-1.40;99.90;;;;;;5023467;28;20037;-71
2022/03/09 05:59:44;;;;;;;7.30;4.25;;;-1.20;99.90;;;;;;5017275;28;20046;-71
2022/03/09 06:02:10;;;;;;;6.22;4.38;;;-1.20;99.90;;;;;;5007703;28;20573;-71
2022/03/09 06:04:36;;;;;;;4.88;3.83;;;-1.10;99.90;;;;;;5026673;28;20392;-71
2022/03/09 06:07:02;;;;;;;4.78;3.33;;;-1.00;99.90;;;;;;5012318;28;20455;-71
2022/03/09 06:09:28;;;;;;;6.00;4.38;;;-1.00;99.90;;;;;;5033067;28;20120;-71
2022/03/09 06:11:54;;;;;;;6.22;3.70;;;-0.90;99.90;;;;;;5035575;28;20128;-71
2022/03/09 06:14:20;;;;;;;7.68;4.10;;;-0.90;99.90;;;;;;5027501;28;20077;-70
2022/03/09 06:16:47;;;;;;;4.85;4.13;;;-0.80;99.90;;;;;;5028637;28;20383;-70
2022/03/09 06:19:14;;;;;;;6.65;4.40;;;-0.80;99.90;;;;;;5028795;28;20095;-71
2022/03/09 06:21:40;;;;;;;6.25;4.28;;;-0.80;99.90;;;;;;5010336;28;20052;-70
2022/03/09 06:24:06;;;;;;;8.18;4.70;;;-0.80;99.90;;;;;;5013777;28;20048;-71
2022/03/09 06:26:32;;;;;;;7.28;4.75;;;-0.80;99.90;;;;;;5013492;28;20530;-71
2022/03/09 06:28:58;;;;;;;8.07;4.78;;;-0.80;99.90;;;;;;5030861;28;20059;-71
2022/03/09 06:31:23;;;;;;;5.93;4.68;;;-0.70;99.90;;;;;;5041374;28;20044;-71
2022/03/09 06:33:49;;;;;;;9.75;4.30;;;-0.70;99.90;;;;;;5047699;28;20570;-71
2022/03/09 06:36:15;;;;;;;4.47;4.05;;;-0.70;99.90;;;;;;5027592;28;20076;-71
2022/03/09 06:38:41;;;;;;;7.10;4.53;;;-0.70;99.90;;;;;;5026003;28;20050;-71
2022/03/09 06:41:07;;;;;;;7.85;4.65;;;-0.70;99.90;;;;;;5026269;28;20045;-71
2022/03/09 06:43:33;;;;;;;5.72;4.20;;;-0.50;99.90;;;;;;5026514;28;20099;-71
2022/03/09 06:45:59;;;;;;;6.90;4.30;;;0.00;99.90;;;;;;5027177;28;20060;-71
2022/03/09 06:48:25;;;;;;;10.70;4.57;;;0.20;99.90;;;;;;5026245;28;20041;-71
2022/03/09 06:50:54;;;;;;;10.82;4.50;;;0.30;99.90;;;;;;5027042;28;20499;-71
2022/03/09 06:53:19;;;;;;;9.93;5.28;;;0.30;99.90;;;;;;5026353;28;20057;-71
2022/03/09 06:55:45;;;;;;;6.82;3.60;;;0.20;99.90;;;;;;5026579;28;20585;-71
2022/03/09 06:58:10;;;;;;;5.05;3.97;;;0.20;99.90;;;;;;5027779;28;20423;-71
2022/03/09 07:00:36;;;;;;;7.78;3.88;;;0.20;99.90;;;;;;5026178;28;20112;-71
2022/03/09 07:03:05;;;;;;;6.97;3.97;;;0.30;99.90;;;;;;5026475;28;20103;-71
2022/03/09 07:05:32;;;;;;;14.38;4.45;;;0.50;99.90;;;;;;5026464;28;20385;-71
2022/03/09 07:07:59;;;;;;;6.68;4.78;;;0.50;99.90;;;;;;5026651;28;20511;-71
2022/03/09 07:10:24;;;;;;;12.95;4.70;;;0.60;99.90;;;;;;5026022;28;20488;-71
2022/03/09 07:12:50;;;;;;;7.63;5.05;;;0.70;99.90;;;;;;5028949;28;20091;-71
2022/03/09 07:15:16;;;;;;;7.63;4.70;;;0.80;99.90;;;;;;5046158;28;20049;-71
2022/03/09 07:17:43;;;;;;;11.75;5.20;;;0.90;99.90;;;;;;5046974;28;20060;-71
2022/03/09 07:20:10;;;;;;;6.70;4.55;;;1.00;99.90;;;;;;5045116;28;20052;-71
2022/03/09 07:22:36;;;;;;;8.65;5.10;;;1.10;99.90;;;;;;5027077;28;20084;-71
2022/03/09 07:25:02;;;;;;;7.28;4.90;;;1.20;99.90;;;;;;5030001;28;20176;-71
2022/03/09 07:27:28;;;;;;;7.25;4.10;;;1.30;99.90;;;;;;5029226;28;20040;-71
2022/03/09 07:29:54;;;;;;;12.70;5.00;;;1.40;99.90;;;;;;5029157;28;20053;-71
2022/03/09 07:32:20;;;;;;;5.30;2.75;;;1.60;99.90;;;;;;5028986;28;20049;-71
2022/03/09 07:34:46;;;;;;;7.72;4.45;;;1.60;99.90;;;;;;5046791;28;20045;-71
2022/03/09 07:37:12;;;;;;;6.72;4.53;;;1.80;99.90;;;;;;5029152;28;20049;-71
2022/03/09 07:39:38;;;;;;;13.18;5.28;;;1.80;99.90;;;;;;5029294;28;20063;-71
2022/03/09 07:42:04;;;;;;;6.43;4.55;;;1.90;99.90;;;;;;5028914;28;20507;-71
2022/03/09 07:44:30;;;;;;;10.68;4.88;;;2.00;99.90;;;;;;5044867;28;20079;-72
2022/03/09 07:46:55;;;;;;;11.43;4.65;;;2.00;99.90;;;;;;5009042;28;20072;-71
2022/03/09 07:49:22;;;;;;;8.25;5.30;;;2.10;99.90;;;;;;5045451;28;20044;-72
2022/03/09 07:51:49;;;;;;;13.05;4.60;;;2.20;99.90;;;;;;5009327;28;20047;-72
2022/03/09 07:54:16;;;;;;;7.28;4.38;;;2.30;99.90;;;;;;5028716;28;20045;-72
2022/03/09 07:56:42;;;;;;;6.55;4.35;;;2.40;99.90;;;;;;5024846;28;20057;-71
2022/03/09 07:59:10;;;;;;;10.18;6.07;;;2.60;99.90;;;;;;5025564;28;20115;-72
2022/03/09 08:01:37;;;;;;;12.65;5.60;;;2.70;99.90;;;;;;5007531;28;20044;-72
2022/03/09 08:04:03;;;;;;;10.20;5.30;;;2.90;99.90;;;;;;5028925;28;20052;-72
2022/03/09 08:06:29;;;;;;;8.35;6.03;;;3.00;99.90;;;;;;4992078;28;20045;-72
2022/03/09 08:08:55;;;;;;;6.28;4.85;;;3.20;99.90;;;;;;5025911;28;20128;-72
2022/03/09 08:11:22;;;;;;;7.40;5.10;;;3.30;99.90;;;;;;5025208;28;20041;-72
2022/03/09 08:13:48;;;;;;;8.38;5.22;;;3.40;99.90;;;;;;5037930;28;20045;-72
2022/03/09 08:16:14;;;;;;;7.80;4.53;;;3.60;99.90;;;;;;5028358;28;20414;-72
2022/03/09 08:18:39;;;;;;;9.43;4.88;;;3.80;99.90;;;;;;5027741;28;20037;-73
2022/03/09 08:21:05;;;;;;;5.20;4.00;;;3.90;99.90;;;;;;5024992;28;20041;-71
2022/03/09 08:23:31;;;;;;;8.00;4.72;;;4.20;99.90;;;;;;5021805;28;20054;-72
2022/03/09 08:25:57;;;;;;;8.25;5.55;;;4.30;99.90;;;;;;5022342;28;20546;-72
2022/03/09 08:28:23;;;;;;;6.75;4.43;;;4.40;99.90;;;;;;5006848;28;20041;-72
2022/03/09 08:30:49;;;;;;;4.53;3.90;;;4.50;99.90;;;;;;5022999;28;20045;-72
2022/03/09 08:33:15;;;;;;;4.60;3.40;;;4.60;99.90;;;;;;5024061;28;20052;-72
2022/03/09 08:35:40;;;;;;;8.48;5.05;;;4.80;99.90;;;;;;5024432;28;20049;-72
2022/03/09 08:38:07;;;;;;;11.02;4.40;;;5.00;99.90;;;;;;5009056;28;20049;-72
2022/03/09 08:40:32;;;;;;;7.93;5.18;;;5.10;99.70;;;;;;5007818;28;20041;-72
2022/03/09 08:42:58;;;;;;;12.52;5.10;;;5.20;99.20;;;;;;5023884;28;20038;-72
2022/03/09 08:45:24;;;;;;;11.98;6.20;;;5.30;99.40;;;;;;5006947;28;20116;-72
2022/03/09 08:47:50;;;;;;;7.00;5.03;;;5.50;98.90;;;;;;5020145;28;20049;-72
2022/03/09 08:50:15;;;;;;;9.80;4.70;;;5.60;98.30;;;;;;5007950;28;20033;-73
2022/03/09 08:52:41;;;;;;;6.53;4.43;;;5.80;97.70;;;;;;5007580;28;20500;-72
2022/03/09 08:55:08;;;;;;;8.80;5.70;;;5.90;98.20;;;;;;5020425;28;20042;-72
2022/03/09 08:57:33;;;;;;;12.48;5.80;;;6.10;95.70;;;;;;5016190;28;20397;-72
2022/03/09 09:00:03;;;;;;;11.00;5.50;;;6.20;96.00;;;;;;5019579;28;20053;-72
2022/03/09 09:02:30;;;;;;;10.38;5.70;;;6.40;95.80;;;;;;5023122;28;20041;-73
2022/03/09 09:04:57;;;;;;;2.28;1.10;;;6.50;95.10;;;;;;5024010;28;20042;-72
2022/03/09 09:07:23;;;;;;;7.03;4.45;;;6.70;93.20;;;;;;5022826;28;20050;-72
2022/03/09 09:09:49;;;;;;;8.23;5.05;;;6.80;92.90;;;;;;4990738;28;20053;-75
2022/03/09 09:12:15;;;;;;;8.52;4.65;;;6.90;90.80;;;;;;5022072;28;20041;-73
2022/03/09 09:14:40;;;;;;;6.60;4.45;;;7.00;92.10;;;;;;5019754;28;20068;-72
2022/03/09 09:17:07;;;;;;;9.82;5.38;;;7.20;90.20;;;;;;5023601;28;20045;-72
2022/03/09 09:19:33;;;;;;;8.20;4.50;;;7.30;91.40;;;;;;5020611;28;20050;-73
2022/03/09 09:22:00;;;;;;;7.60;4.15;;;7.30;86.80;;;;;;5024631;28;20479;-73
2022/03/09 09:24:26;;;;;;;7.82;5.75;;;7.40;78.90;;;;;;4990594;28;20650;-72
2022/03/09 09:26:52;;;;;;;8.75;4.50;;;7.50;81.90;;;;;;4987588;28;20125;-73
2022/03/09 09:29:18;;;;;;;6.35;3.42;;;7.60;75.30;;;;;;4987552;28;20058;-73
2022/03/09 09:31:48;;;;;;;6.07;3.70;;;7.70;74.80;;;;;;4987945;28;20053;-72
2022/03/09 09:34:15;;;;;;;11.60;5.40;;;7.80;77.80;;;;;;4988674;28;20100;-72
2022/03/09 09:36:44;;;;;;;7.60;4.38;;;7.90;72.80;;;;;;4988337;28;20124;-72
2022/03/09 09:39:13;;;;;;;7.43;4.70;;;7.90;73.90;;;;;;4992892;28;20046;-72
2022/03/09 09:41:42;;;;;;;6.47;3.75;;;8.00;70.00;;;;;;4991581;28;20103;-72
2022/03/09 09:44:09;;;;;;;5.97;4.00;;;8.10;75.00;;;;;;4974965;28;20046;-72
2022/03/09 09:46:39;;;;;;;9.05;4.68;;;8.10;69.30;;;;;;4988826;28;20056;-72
2022/03/09 09:49:07;;;;;;;10.57;5.20;;;8.10;72.60;;;;;;4987425;28;20053;-72
2022/03/09 09:51:37;;;;;;;5.40;4.22;;;8.30;74.40;;;;;;4974329;28;20042;-72
2022/03/09 09:54:05;;;;;;;5.22;4.32;;;8.40;68.70;;;;;;4988568;28;20053;-72
2022/03/09 09:56:35;;;;;;;7.25;4.35;;;8.40;66.80;;;;;;5006767;28;20508;-72
2022/03/09 09:59:01;;;;;;;6.28;4.30;;;8.50;69.10;;;;;;4991794;28;20045;-72
2022/03/09 10:01:27;;;;;;;5.95;4.57;;;8.60;63.50;;;;;;4974864;28;20456;-72
2022/03/09 10:03:53;;;;;;;7.38;4.55;;;8.60;62.50;;;;;;4972056;28;20358;-72
2022/03/09 10:06:19;;;;;;;7.22;4.70;;;8.60;64.80;;;;;;4982465;28;20140;-72
2022/03/09 10:09:12;;;;;;;6.25;4.38;;;8.70;69.00;;;;;;4991620;28;20048;-72
2022/03/09 10:11:47;;;;;;;6.13;3.78;;;8.90;64.70;;;;;;4989366;28;20065;-72
2022/03/09 10:14:14;;;;;;;8.75;4.10;;;9.00;57.40;;;;;;5011251;28;20057;-72
2022/03/09 10:17:03;;;;;;;5.68;4.22;;;9.00;61.90;;;;;;4997139;28;20049;-72
2022/03/09 10:19:34;;;;;;;8.67;4.50;;;9.20;59.70;;;;;;5007871;28;20533;-73
2022/03/09 10:22:23;;;;;;;5.80;3.92;;;9.20;57.80;;;;;;5011238;28;20053;-73
2022/03/09 10:24:49;;;;;;;4.10;3.40;;;9.30;50.10;;;;;;5010652;28;20096;-72
2022/03/09 10:27:52;;;;;;;5.88;4.40;;;9.30;51.30;;;;;;5007562;28;20045;-72
2022/03/09 10:30:19;;;;;;;10.95;5.13;;;9.30;51.30;;;;;;4954775;28;20529;-72
2022/03/09 10:32:56;;;;;;;7.70;4.57;;;9.30;57.20;;;;;;5014338;28;20136;-73
2022/03/09 10:35:31;;;;;;;11.88;3.95;;;9.30;54.90;;;;;;5026739;28;21029;-72
2022/03/09 10:37:57;;;;;;;5.88;4.40;;;9.40;49.20;;;;;;5023273;28;20049;-73
2022/03/09 10:40:24;;;;;;;11.05;5.28;;;9.40;48.90;;;;;;5004062;28;20613;-73
2022/03/09 10:42:51;;;;;;;6.18;4.70;;;9.50;56.40;;;;;;5011006;28;20679;-73
2022/03/09 10:45:18;;;;;;;8.43;4.50;;;9.60;51.80;;;;;;5009122;28;20168;-72
2022/03/09 10:47:47;;;;;;;6.97;4.38;;;9.60;51.40;;;;;;5010074;28;20298;-72
2022/03/09 10:50:25;;;;;;;6.32;3.78;;;9.70;55.10;;;;;;5006849;28;20041;-73
2022/03/09 10:52:59;;;;;;;6.50;4.72;;;9.80;53.40;;;;;;5002541;28;20397;-72
2022/03/09 10:55:29;;;;;;;8.07;4.65;;;9.90;50.10;;;;;;5008274;28;20096;-72
2022/03/09 10:58:07;;;;;;;5.35;4.63;;;9.90;46.50;;;;;;5009315;28;20057;-73
2022/03/09 11:00:53;;;;;;;9.45;5.03;;;9.90;46.10;;;;;;5009947;28;20139;-73
2022/03/09 11:03:27;;;;;;;5.22;3.72;;;9.90;45.30;;;;;;5007786;28;20052;-73
2022/03/09 11:05:58;;;;;;;11.98;5.20;;;10.00;47.00;;;;;;5007424;28;20041;-73
2022/03/09 11:08:29;;;;;;;7.75;5.20;;;10.00;44.80;;;;;;5009137;28;20052;-73
2022/03/09 11:10:58;;;;;;;6.53;4.78;;;10.20;47.10;;;;;;5006692;28;20046;-74
2022/03/09 11:13:24;;;;;;;13.52;4.70;;;10.20;46.70;;;;;;5009764;28;20041;-73
2022/03/09 11:15:51;;;;;;;7.45;4.82;;;10.30;47.80;;;;;;5007705;28;20523;-73
2022/03/09 11:18:25;;;;;;;5.20;4.43;;;10.40;42.90;;;;;;5006205;28;20508;-73
2022/03/09 11:20:53;;;;;;;11.82;4.65;;;10.50;45.80;;;;;;5008019;28;20407;-73
2022/03/09 11:23:20;;;;;;;12.43;5.78;;;10.50;39.70;;;;;;4994578;28;20580;-73
2022/03/09 11:26:00;;;;;;;6.35;4.05;;;10.50;38.20;;;;;;5001177;28;20397;-73
2022/03/09 11:28:30;;;;;;;6.55;5.10;;;10.60;39.40;;;;;;4986959;28;20049;-74
2022/03/09 11:31:04;;;;;;;6.35;4.90;;;10.50;38.00;;;;;;4986814;28;20038;-74
2022/03/09 11:33:50;;;;;;;8.77;4.78;;;10.60;35.10;;;;;;4970824;28;20084;-74
2022/03/09 11:36:22;;;;;;;8.35;4.20;;;10.60;37.40;;;;;;4988577;28;20053;-75
2022/03/09 11:39:04;;;;;;;5.88;4.82;;;10.60;35.10;;;;;;4989620;28;20128;-73
2022/03/09 11:41:36;;;;;;;8.30;4.68;;;10.60;36.70;;;;;;4995526;28;20157;-73
2022/03/09 11:44:20;;;;;;;7.10;4.40;;;10.80;39.40;;;;;;4990255;28;20492;-74
2022/03/09 11:47:00;;;;;;;6.43;4.15;;;10.80;38.80;;;;;;4987018;28;20547;-74
2022/03/09 11:49:54;;;;;;;3.92;3.05;;;10.90;38.80;;;;;;4988429;28;20053;-74
2022/03/09 11:52:22;;;;;;;5.05;3.80;;;11.00;36.50;;;;;;4994646;28;20099;-73
2022/03/09 11:54:49;;;;;;;8.23;4.43;;;10.90;34.90;;;;;;4987625;28;20049;-73
2022/03/09 11:57:16;;;;;;;7.88;5.15;;;10.90;36.00;;;;;;4988728;28;20050;-74
2022/03/09 12:00:12;;;;;;;7.10;4.90;;;10.90;40.20;;;;;;4970468;28;20621;-73
2022/03/09 12:02:39;;;;;;;7.78;4.53;;;11.00;40.50;;;;;;4984287;28;20081;-73
2022/03/09 12:05:05;;;;;;;6.50;4.35;;;11.10;37.70;;;;;;5004807;28;20473;-74
2022/03/09 12:07:47;;;;;;;7.63;4.63;;;11.10;40.40;;;;;;4986618;28;20377;-73
2022/03/09 12:10:14;;;;;;;11.32;4.13;;;11.00;37.40;;;;;;4972594;28;20045;-73
2022/03/09 12:13:20;;;;;;;5.80;4.63;;;11.20;38.90;;;;;;5000003;28;20113;-73
2022/03/09 12:16:15;;;;;;;6.28;4.43;;;11.40;37.50;;;;;;4993759;28;20581;-74
2022/03/09 12:18:49;;;;;;;7.30;4.75;;;11.40;35.60;;;;;;5003040;28;20037;-74
2022/03/09 12:21:40;;;;;;;3.78;3.20;;;11.50;38.00;;;;;;4991122;28;20123;-75
2022/03/09 12:24:25;;;;;;;5.93;3.50;;;11.60;31.90;;;;;;5009126;28;20480;-75
2022/03/09 12:26:55;;;;;;;5.25;4.18;;;11.50;33.30;;;;;;5017991;28;20049;-74
2022/03/09 12:29:21;;;;;;;5.97;3.67;;;11.50;29.60;;;;;;5025637;28;20076;-74
2022/03/09 12:32:00;;;;;;;6.70;4.07;;;11.40;31.30;;;;;;5007849;28;20088;-74
2022/03/09 12:34:27;;;;;;;12.23;3.53;;;11.50;31.30;;;;;;5007873;28;20037;-74
2022/03/09 12:36:54;;;;;;;9.23;4.65;;;11.50;29.00;;;;;;5005043;28;20092;-74
2022/03/09 12:39:20;;;;;;;6.65;4.65;;;11.50;31.50;;;;;;5008058;28;20064;-73
2022/03/09 12:41:54;;;;;;;7.60;4.97;;;11.70;30.70;;;;;;5007055;28;20120;-73
2022/03/09 12:44:24;;;;;;;7.65;4.85;;;12.00;32.20;;;;;;5025645;28;20073;-74
2022/03/09 12:46:53;;;;;;;8.23;5.13;;;12.00;31.10;;;;;;5006880;28;20278;-73
2022/03/09 12:49:28;;;;;;;5.72;4.35;;;12.00;30.50;;;;;;5004870;28;20119;-74
2022/03/09 12:51:59;;;;;;;5.97;3.85;;;11.90;34.00;;;;;;5022942;28;20460;-74
2022/03/09 12:54:37;;;;;;;7.30;4.07;;;12.10;33.10;;;;;;5006331;28;20038;-73
2022/03/09 12:57:15;;;;;;;7.05;4.63;;;12.20;30.00;;;;;;5006759;28;20064;-73